Ana Sayfa
METAR-TAF:

METAR-TAF

Havaalanları :

Buriram, Tayland

Enlem: 15-13-46N, Boylam: 103-15-04E, yükseklik: 180 m

Güncel hava durumu gözlemi

Rapor saat 09:00 UTC de 16 dakika önce yapıldı.
Rüzgar güneybatıdan 6 kt, güney ve kuzeybatı arasında değişken
Sıcaklık 38°C
Nem 27%
Basınç 1006 hPa
Görüş mesafesi: 9000 m
3000 ft yükseklikte parçalı bulutlu

METAR: VTUO 280900Z 23006KT 180V310 9000 SCT030 38/16 Q1006 NOSIG

Saat: 16:16 (09:16 UTC)

Tahmin

Rapor saat 05:00 UTC de 4 saat ve 16 dakika önce yapıldı.
Ayın 28'si saat 06 UTC'den ayın 29'si saat 06 UTC'ye kadar geçerli Tahmin
Rüzgar güneydan 5 kt
Görüş mesafesi: 8000 m
3000 ft yükseklikte az bulutlu
Dönüşüyor
ayın 28'si saat 20 UTC'den ayın 28'si saat 22 UTC'ye kadar
Görüş mesafesi: 5000 m
Pus
Dönüşüyor
ayın 29'si saat 01 UTC'den ayın 29'si saat 03 UTC'ye kadar
Görüş mesafesi: 7000 m

TAF: VTUO 280500Z 2806/2906 19005KT 8000 FEW030 BECMG 2820/2822 5000 BR BECMG 2901/2903 7000 NSW

4.000'den fazla havaalanı için hava durumu gözlemleri ve tahminleri (METAR ve TAF raporları).

Kullanılabilir istasyonlar harita üzerinde sarı ve kırmızı noktalarla gösterilir.

İstasyonun adını görmek için fareyi noktanın üzerinde gezdirin.

Sonrasında hava gözlem ve tahminlerini görmek için tıklayın.

Haritayı değiştirmek için: yaklaştırmak için siyah artı işaretli yeşil düğmeye ve uzaklaştırmak için de eksi işaretli düğmeye hızla tıklayın; bitişik haritalar için yeşil okları kullanın.


METAR-TAF: